createdAt,value
2022-10-05T00:00:27.310Z,972.8900
2022-10-05T00:01:29.606Z,972.9100
2022-10-05T00:02:29.706Z,972.9100
2022-10-05T00:03:31.900Z,972.9100
2022-10-05T00:04:34.103Z,972.9100
2022-10-05T00:05:36.312Z,972.9100
2022-10-05T00:06:38.539Z,972.8900
2022-10-05T00:07:40.795Z,972.8700
2022-10-05T00:08:43.050Z,972.8900
2022-10-05T00:09:47.398Z,972.8900
2022-10-05T00:10:41.055Z,972.8900
2022-10-05T00:11:43.220Z,972.8900
2022-10-05T00:12:43.311Z,972.8900
2022-10-05T00:13:47.633Z,972.8700
2022-10-05T00:14:47.723Z,972.8500
2022-10-05T00:15:49.923Z,972.8500
2022-10-05T00:16:52.257Z,972.8500
2022-10-05T00:17:54.447Z,972.8500
2022-10-05T00:18:56.650Z,972.8500
2022-10-05T00:19:58.907Z,972.8500
2022-10-05T00:21:01.190Z,972.8700
2022-10-05T00:22:03.489Z,972.8700
2022-10-05T00:23:03.747Z,972.8500
2022-10-05T00:24:05.903Z,972.8700
2022-10-05T00:25:08.144Z,972.8900
2022-10-05T00:26:10.405Z,972.8700
2022-10-05T00:27:12.670Z,972.8900
2022-10-05T00:28:15.085Z,972.8900
2022-10-05T00:29:17.209Z,972.8700
2022-10-05T00:30:19.494Z,972.8700
2022-10-05T00:31:19.658Z,972.8900
2022-10-05T00:32:21.833Z,972.8700
2022-10-05T00:33:24.118Z,972.8900
2022-10-05T00:34:26.391Z,972.8700
2022-10-05T00:35:28.632Z,972.8900
2022-10-05T00:36:30.878Z,972.8700
2022-10-05T00:37:33.153Z,972.8500
2022-10-05T00:38:35.485Z,972.8500
2022-10-05T00:39:37.718Z,972.8700
2022-10-05T00:40:37.819Z,972.8900
2022-10-05T00:41:40.069Z,972.8900
2022-10-05T00:44:01.940Z,972.8700
2022-10-05T00:45:03.972Z,972.8900
2022-10-05T00:46:06.253Z,972.8700
2022-10-05T00:47:08.374Z,972.8700
2022-10-05T00:48:10.577Z,972.8700
2022-10-05T00:49:12.797Z,972.8700
2022-10-05T00:50:12.873Z,972.8300
2022-10-05T00:51:15.092Z,972.8300
2022-10-05T00:52:17.255Z,972.7900
2022-10-05T00:53:19.456Z,972.7900
2022-10-05T00:54:21.657Z,972.7700
2022-10-05T00:55:23.826Z,972.7500
2022-10-05T00:56:25.959Z,972.7300
2022-10-05T00:57:28.134Z,972.7300
2022-10-05T00:58:30.304Z,972.7200
2022-10-05T00:59:32.538Z,972.7200
2022-10-05T01:00:34.713Z,972.7000
2022-10-05T01:01:36.991Z,972.7000
2022-10-05T01:02:39.206Z,972.7000
2022-10-05T01:03:41.278Z,972.7000
2022-10-05T01:04:43.561Z,972.6800
2022-10-05T01:05:45.592Z,972.6800
2022-10-05T01:06:47.987Z,972.7000
2022-10-05T01:07:49.885Z,972.7000
2022-10-05T01:08:52.073Z,972.7200
2022-10-05T01:09:54.391Z,972.7000
2022-10-05T01:10:56.479Z,972.7200
2022-10-05T01:11:58.638Z,972.7000
2022-10-05T01:12:58.679Z,972.6800
2022-10-05T01:14:00.872Z,972.6800
2022-10-05T01:15:03.096Z,972.6600
2022-10-05T01:16:05.308Z,972.6800
2022-10-05T01:17:07.467Z,972.6600
2022-10-05T01:18:09.612Z,972.6400
2022-10-05T01:19:11.820Z,972.6200
2022-10-05T01:20:14.074Z,972.6400
2022-10-05T01:21:16.253Z,972.6200
2022-10-05T01:22:18.446Z,972.6000
2022-10-05T01:23:20.653Z,972.6000
2022-10-05T01:24:22.852Z,972.6000
2022-10-05T01:25:25.065Z,972.6000
2022-10-05T01:26:27.263Z,972.5800
2022-10-05T01:27:29.415Z,972.5800
2022-10-05T01:28:31.684Z,972.5600
2022-10-05T01:29:33.814Z,972.5400
2022-10-05T01:30:36.052Z,972.5400
2022-10-05T01:31:38.375Z,972.5400
2022-10-05T01:32:38.282Z,972.5400
2022-10-05T01:33:40.489Z,972.5400
2022-10-05T01:34:42.689Z,972.5400
2022-10-05T01:35:44.922Z,972.5600
2022-10-05T01:36:47.449Z,972.5600
2022-10-05T01:37:49.230Z,972.5200
2022-10-05T01:38:51.414Z,972.5200
2022-10-05T01:39:51.464Z,972.5200
2022-10-05T01:40:53.686Z,972.5400
2022-10-05T01:41:55.829Z,972.5600
2022-10-05T01:42:57.988Z,972.5800
2022-10-05T01:44:00.184Z,972.5600
2022-10-05T01:45:02.340Z,972.5800
2022-10-05T01:46:04.575Z,972.5600
2022-10-05T01:47:06.694Z,972.5600
2022-10-05T01:48:08.890Z,972.5800
2022-10-05T01:49:11.075Z,972.5800
2022-10-05T01:50:13.309Z,972.6000
2022-10-05T01:51:15.598Z,972.6400
2022-10-05T01:52:17.803Z,972.6400
2022-10-05T01:53:17.846Z,972.6600
2022-10-05T01:54:20.025Z,972.6800
2022-10-05T01:55:22.257Z,972.7000
2022-10-05T01:56:24.475Z,972.7000
2022-10-05T01:57:26.617Z,972.7000
2022-10-05T01:58:28.760Z,972.6800
2022-10-05T01:59:30.951Z,972.6600
2022-10-05T02:00:33.130Z,972.6600
2022-10-05T02:01:35.497Z,972.6200
2022-10-05T02:02:37.685Z,972.6000
2022-10-05T02:03:39.843Z,972.6000
2022-10-05T02:05:01.470Z,972.6000
2022-10-05T02:05:44.350Z,972.6000
2022-10-05T02:06:47.050Z,972.5800
2022-10-05T02:07:46.705Z,972.5800
2022-10-05T02:08:48.973Z,972.5800
2022-10-05T02:09:51.255Z,972.5800
2022-10-05T02:10:53.529Z,972.5800
2022-10-05T02:11:55.835Z,972.5600
2022-10-05T02:12:58.058Z,972.5600
2022-10-05T02:14:00.302Z,972.5600
2022-10-05T02:15:02.551Z,972.5800
2022-10-05T02:16:04.878Z,972.5400
2022-10-05T02:17:04.939Z,972.5800
2022-10-05T02:18:07.196Z,972.5800
2022-10-05T02:19:09.452Z,972.5400
2022-10-05T02:20:11.709Z,972.5400
2022-10-05T02:21:13.977Z,972.5200
2022-10-05T02:22:16.244Z,972.5200
2022-10-05T02:23:18.472Z,972.5400
2022-10-05T02:25:42.330Z,972.5400
2022-10-05T02:26:44.832Z,972.5600
2022-10-05T02:27:46.652Z,972.5400
2022-10-05T02:28:48.870Z,972.5600
2022-10-05T02:29:51.066Z,972.5800
2022-10-05T02:30:53.300Z,972.5800
2022-10-05T02:31:55.529Z,972.5800
2022-10-05T02:32:57.762Z,972.5800
2022-10-05T02:33:59.972Z,972.5800
2022-10-05T02:35:02.209Z,972.5800
2022-10-05T02:36:04.446Z,972.6000
2022-10-05T02:37:04.536Z,972.6000
2022-10-05T02:38:06.790Z,972.5800
2022-10-05T02:39:08.916Z,972.5800
2022-10-05T02:40:11.120Z,972.6200
2022-10-05T02:41:13.335Z,972.5800
2022-10-05T02:42:15.582Z,972.6000
2022-10-05T02:43:17.879Z,972.5800
2022-10-05T02:44:20.121Z,972.5800
2022-10-05T02:45:22.348Z,972.5400
2022-10-05T02:46:23.581Z,972.5400
2022-10-05T02:47:25.746Z,972.5400
2022-10-05T02:48:25.887Z,972.5400
2022-10-05T02:49:28.110Z,972.5400
2022-10-05T02:50:30.334Z,972.5200
2022-10-05T02:51:32.571Z,972.5400
2022-10-05T02:52:34.780Z,972.4800
2022-10-05T02:53:37.122Z,972.5000
2022-10-05T02:54:39.321Z,972.4800
2022-10-05T02:55:41.547Z,972.5200
2022-10-05T02:56:44.118Z,972.5000
2022-10-05T02:57:45.931Z,972.4800
2022-10-05T02:58:48.130Z,972.4800
2022-10-05T02:59:50.361Z,972.4600
2022-10-05T03:00:52.663Z,972.4800
2022-10-05T03:01:52.766Z,972.4800
2022-10-05T03:02:54.898Z,972.4800
2022-10-05T03:03:57.146Z,972.4600
2022-10-05T03:04:59.346Z,972.4800
2022-10-05T03:06:01.575Z,972.4600
2022-10-05T03:07:03.800Z,972.4600
2022-10-05T03:08:06.039Z,972.4600
2022-10-05T03:09:08.298Z,972.4800
2022-10-05T03:10:10.504Z,972.4400
2022-10-05T03:11:10.580Z,972.4400
2022-10-05T03:12:12.773Z,972.4000
2022-10-05T03:13:15.009Z,972.3600
2022-10-05T03:14:17.241Z,972.3800
2022-10-05T03:15:19.446Z,972.3800
2022-10-05T03:16:19.606Z,972.3600
2022-10-05T03:17:21.753Z,972.3600
2022-10-05T03:18:28.563Z,972.3300
2022-10-05T03:19:26.236Z,972.3400
2022-10-05T03:20:28.406Z,972.3300
2022-10-05T03:21:30.627Z,972.3100
2022-10-05T03:22:32.863Z,972.3100
2022-10-05T03:23:35.067Z,972.2700
2022-10-05T03:24:37.337Z,972.2700
2022-10-05T03:25:37.382Z,972.2700
2022-10-05T03:26:39.584Z,972.2300
2022-10-05T03:27:41.818Z,972.2100
2022-10-05T03:28:44.050Z,972.2300
2022-10-05T03:29:46.257Z,972.2100
2022-10-05T03:30:46.327Z,972.1900
2022-10-05T03:31:48.511Z,972.2100
2022-10-05T03:32:50.768Z,972.1100
2022-10-05T03:33:53.040Z,972.1100
2022-10-05T03:34:55.363Z,972.1100
2022-10-05T03:35:57.584Z,972.1900
2022-10-05T03:36:59.866Z,972.1100
2022-10-05T03:38:02.123Z,972.1900
2022-10-05T03:39:02.233Z,972.2100
2022-10-05T03:40:04.475Z,972.2100
2022-10-05T03:41:06.762Z,972.1900
2022-10-05T03:42:09.174Z,972.2100
2022-10-05T03:43:11.245Z,972.2100
2022-10-05T03:44:13.585Z,972.2300
2022-10-05T03:45:15.788Z,972.2300
2022-10-05T03:46:18.215Z,972.2500
2022-10-05T03:47:18.178Z,972.2300
2022-10-05T03:48:20.470Z,972.2500
2022-10-05T03:49:22.754Z,972.2500
2022-10-05T03:50:25.029Z,972.2500
2022-10-05T03:51:25.113Z,972.2900
2022-10-05T03:52:27.381Z,972.2500
2022-10-05T03:53:29.651Z,972.2900
2022-10-05T03:54:31.940Z,972.3100
2022-10-05T03:55:32.082Z,972.3600
2022-10-05T03:56:34.300Z,972.3600
2022-10-05T03:57:36.543Z,972.3600
2022-10-05T03:58:38.769Z,972.3600
2022-10-05T03:59:40.986Z,972.3800
2022-10-05T04:00:43.273Z,972.4000
2022-10-05T04:01:45.584Z,972.4000
2022-10-05T04:02:47.690Z,972.3800
2022-10-05T04:03:49.839Z,972.3400
2022-10-05T04:04:52.065Z,972.3800
2022-10-05T04:05:54.331Z,972.3600
2022-10-05T04:06:56.587Z,972.3600
2022-10-05T04:07:58.830Z,972.3800
2022-10-05T04:09:01.038Z,972.3600
2022-10-05T04:10:03.256Z,972.3800
2022-10-05T04:11:05.562Z,972.3800
2022-10-05T04:12:07.852Z,972.3800
2022-10-05T04:13:10.085Z,972.3400
2022-10-05T04:14:12.337Z,972.3300
2022-10-05T04:15:18.739Z,972.3600
2022-10-05T04:16:16.873Z,972.3600
2022-10-05T04:17:19.019Z,972.3400
2022-10-05T04:18:21.177Z,972.3800
2022-10-05T04:19:23.403Z,972.3600
2022-10-05T04:20:25.636Z,972.3600
2022-10-05T04:21:27.926Z,972.3400
2022-10-05T04:22:30.168Z,972.3400
2022-10-05T04:23:32.448Z,972.3800
2022-10-05T04:24:34.671Z,972.4000
2022-10-05T04:25:36.873Z,972.3600
2022-10-05T04:26:39.149Z,972.4000
2022-10-05T04:27:41.351Z,972.4200
2022-10-05T04:28:43.689Z,972.4000
2022-10-05T04:29:45.830Z,972.3800
2022-10-05T04:30:48.038Z,972.4200
2022-10-05T04:31:50.410Z,972.4000
2022-10-05T04:32:52.498Z,972.3300
2022-10-05T04:33:54.723Z,972.3100
2022-10-05T04:34:56.935Z,972.3400
2022-10-05T04:35:59.180Z,972.2900
2022-10-05T04:37:01.411Z,972.2900
2022-10-05T04:38:01.466Z,972.3100
2022-10-05T04:39:03.713Z,972.3100
2022-10-05T04:40:05.929Z,972.2700
2022-10-05T04:41:08.136Z,972.2900
2022-10-05T04:42:10.387Z,972.2900
2022-10-05T04:43:12.561Z,972.2700
2022-10-05T04:44:14.778Z,972.2700
2022-10-05T04:45:16.998Z,972.2900
2022-10-05T04:46:19.277Z,972.2900
2022-10-05T04:47:19.355Z,972.2700
2022-10-05T04:48:21.550Z,972.3100
2022-10-05T04:49:23.771Z,972.3400
2022-10-05T04:50:25.993Z,972.3600
2022-10-05T04:51:28.185Z,972.4000
2022-10-05T04:52:28.264Z,972.4000
2022-10-05T04:53:30.439Z,972.4200
2022-10-05T04:54:32.662Z,972.4400
2022-10-05T04:55:34.886Z,972.4600
2022-10-05T04:56:37.106Z,972.4800
2022-10-05T04:57:37.233Z,972.4800
2022-10-05T04:58:42.418Z,972.4800
2022-10-05T04:59:41.639Z,972.5000
2022-10-05T05:00:44.047Z,972.5200
2022-10-05T05:01:46.097Z,972.5000
2022-10-05T05:02:46.227Z,972.5200
2022-10-05T05:03:48.492Z,972.5400
2022-10-05T05:04:52.066Z,972.5600
2022-10-05T05:06:15.933Z,972.5600
2022-10-05T05:06:55.044Z,972.6000
2022-10-05T05:07:55.123Z,972.6400
2022-10-05T05:08:57.313Z,972.6200
2022-10-05T05:09:59.500Z,972.6200
2022-10-05T05:11:01.698Z,972.6000
2022-10-05T05:12:03.894Z,972.6200
2022-10-05T05:13:06.057Z,972.6000
2022-10-05T05:14:08.208Z,972.6000
2022-10-05T05:15:10.427Z,972.6000
2022-10-05T05:16:12.751Z,972.5800
2022-10-05T05:17:14.854Z,972.6200
2022-10-05T05:18:14.956Z,972.6200
2022-10-05T05:19:17.137Z,972.6000
2022-10-05T05:20:19.403Z,972.6600
2022-10-05T05:21:21.546Z,972.6600
2022-10-05T05:22:23.767Z,972.6400
2022-10-05T05:23:23.913Z,972.6400
2022-10-05T05:24:26.123Z,972.6200
2022-10-05T05:25:28.382Z,972.5800
2022-10-05T05:26:32.031Z,972.6000
2022-10-05T05:27:32.874Z,972.6400
2022-10-05T05:28:35.243Z,972.6000
2022-10-05T05:29:37.363Z,972.6200
2022-10-05T05:30:39.596Z,972.6200
2022-10-05T05:31:41.915Z,972.6200
2022-10-05T05:32:44.079Z,972.6200
2022-10-05T05:33:46.353Z,972.6000
2022-10-05T05:34:48.618Z,972.5800
2022-10-05T05:35:50.818Z,972.6000
2022-10-05T05:36:53.070Z,972.5800
2022-10-05T05:37:55.310Z,972.5600
2022-10-05T05:38:57.591Z,972.6000
2022-10-05T05:39:57.660Z,972.5800
2022-10-05T05:40:59.894Z,972.5600
2022-10-05T05:42:02.132Z,972.5800
2022-10-05T05:43:04.383Z,972.5800
2022-10-05T05:44:06.672Z,972.6000
2022-10-05T05:45:08.929Z,972.6000
2022-10-05T05:46:11.275Z,972.6200
2022-10-05T05:47:13.984Z,972.5800
2022-10-05T05:48:13.638Z,972.5800
2022-10-05T05:49:15.958Z,972.6000
2022-10-05T05:50:18.221Z,972.5800
2022-10-05T05:51:20.481Z,972.5800
2022-10-05T05:52:20.613Z,972.5800
2022-10-05T05:53:22.893Z,972.5800
2022-10-05T05:54:25.158Z,972.6000
2022-10-05T05:55:30.152Z,972.6000
2022-10-05T05:56:27.542Z,972.6000
2022-10-05T05:57:29.830Z,972.6000
2022-10-05T05:58:32.122Z,972.5600
2022-10-05T05:59:34.423Z,972.5600
2022-10-05T06:00:34.516Z,972.6000
2022-10-05T06:01:39.560Z,972.6000
2022-10-05T06:02:39.214Z,972.5600
2022-10-05T06:03:41.359Z,972.5600
2022-10-05T06:04:43.675Z,972.5800
2022-10-05T06:05:45.948Z,972.5600
2022-10-05T06:06:48.651Z,972.6000
2022-10-05T06:07:48.289Z,972.5800
2022-10-05T06:08:50.517Z,972.6200
2022-10-05T06:09:52.756Z,972.6200
2022-10-05T06:10:54.916Z,972.6000
2022-10-05T06:11:57.096Z,972.6000
2022-10-05T06:13:01.742Z,972.5800
2022-10-05T06:14:01.524Z,972.5800
2022-10-05T06:15:03.752Z,972.5800
2022-10-05T06:16:06.015Z,972.5400
2022-10-05T06:17:08.164Z,972.5400
2022-10-05T06:18:08.235Z,972.5400
2022-10-05T06:19:10.485Z,972.5400
2022-10-05T06:20:12.712Z,972.5600
2022-10-05T06:21:14.929Z,972.5400
2022-10-05T06:22:17.118Z,972.5400
2022-10-05T06:23:19.340Z,972.5600
2022-10-05T06:24:21.551Z,972.5400
2022-10-05T06:25:23.813Z,972.5400
2022-10-05T06:26:25.995Z,972.5200
2022-10-05T06:27:26.059Z,972.5200
2022-10-05T06:28:28.278Z,972.5600
2022-10-05T06:29:30.482Z,972.5400
2022-10-05T06:30:32.687Z,972.5400
2022-10-05T06:31:34.915Z,972.5200
2022-10-05T06:32:37.028Z,972.5200
2022-10-05T06:33:39.241Z,972.5600
2022-10-05T06:34:41.432Z,972.5600
2022-10-05T06:35:43.662Z,972.5600
2022-10-05T06:36:46.141Z,972.6000
2022-10-05T06:37:48.067Z,972.6200
2022-10-05T06:38:50.239Z,972.6400
2022-10-05T06:39:52.474Z,972.6200
2022-10-05T06:40:54.738Z,972.6800
2022-10-05T06:41:56.997Z,972.7000
2022-10-05T06:42:59.273Z,972.7000
2022-10-05T06:44:01.557Z,972.7200
2022-10-05T06:45:03.793Z,972.7300
2022-10-05T06:46:03.960Z,972.7200
2022-10-05T06:47:06.169Z,972.7300
2022-10-05T06:48:08.442Z,972.7500
2022-10-05T06:49:10.692Z,972.7500
2022-10-05T06:50:10.762Z,972.7700
2022-10-05T06:51:12.984Z,972.7500
2022-10-05T06:52:15.184Z,972.7900
2022-10-05T06:53:17.360Z,972.7700
2022-10-05T06:54:19.566Z,972.8100
2022-10-05T06:55:21.795Z,972.8100
2022-10-05T06:56:24.029Z,972.8300
2022-10-05T06:57:26.189Z,972.8300
2022-10-05T06:58:28.417Z,972.8300
2022-10-05T06:59:30.628Z,972.8500
2022-10-05T07:00:30.692Z,972.8500
2022-10-05T07:01:32.876Z,972.8700
2022-10-05T07:02:35.090Z,972.8700
2022-10-05T07:03:37.223Z,972.8900
2022-10-05T07:04:39.416Z,972.8900
2022-10-05T07:05:41.607Z,972.9100
2022-10-05T07:06:43.855Z,972.9300
2022-10-05T07:07:46.114Z,972.9300
2022-10-05T07:08:48.351Z,972.9700
2022-10-05T07:09:50.576Z,972.9500
2022-10-05T07:10:52.865Z,973.0100
2022-10-05T07:11:59.516Z,973.0300
2022-10-05T07:12:57.390Z,973.0100
2022-10-05T07:13:57.509Z,973.0100
2022-10-05T07:14:59.758Z,973.0300
2022-10-05T07:16:02.093Z,973.0300
2022-10-05T07:17:04.318Z,973.0300
2022-10-05T07:18:06.492Z,973.0500
2022-10-05T07:19:08.742Z,973.0300
2022-10-05T07:20:11.001Z,973.0700
2022-10-05T07:21:13.255Z,973.0700
2022-10-05T07:22:15.539Z,973.0700
2022-10-05T07:23:17.781Z,973.0500
2022-10-05T07:24:20.050Z,973.0700
2022-10-05T07:25:22.359Z,973.0700
2022-10-05T07:26:24.642Z,973.0500
2022-10-05T07:27:26.977Z,973.0900
2022-10-05T07:28:29.267Z,973.0700
2022-10-05T07:29:29.304Z,973.0700
2022-10-05T07:30:31.650Z,973.0900
2022-10-05T07:31:33.857Z,973.1100
2022-10-05T07:32:36.092Z,973.1100
2022-10-05T07:33:38.469Z,973.0900
2022-10-05T07:34:40.638Z,973.1100
2022-10-05T07:35:42.909Z,973.1100
2022-10-05T07:36:45.990Z,973.1300
2022-10-05T07:37:45.311Z,973.1100
2022-10-05T07:38:47.569Z,973.1100
2022-10-05T07:40:00.071Z,973.1100
2022-10-05T07:40:52.068Z,973.1700
2022-10-05T07:41:52.135Z,973.1100
2022-10-05T07:42:54.377Z,973.1300
2022-10-05T07:44:06.713Z,973.1100
2022-10-05T07:44:58.757Z,973.1100
2022-10-05T07:46:01.060Z,973.1300
2022-10-05T07:47:01.057Z,973.1100
2022-10-05T07:48:03.263Z,973.1100
2022-10-05T07:49:05.444Z,973.1100
2022-10-05T07:50:07.677Z,973.1300
2022-10-05T07:51:09.943Z,973.1300
2022-10-05T07:52:10.003Z,973.1100
2022-10-05T07:53:12.254Z,973.1100
2022-10-05T07:54:16.211Z,973.1100
2022-10-05T07:55:18.834Z,973.1300
2022-10-05T07:56:20.957Z,973.1300
2022-10-05T07:57:23.087Z,973.1300
2022-10-05T07:58:25.270Z,973.1300
2022-10-05T07:59:27.399Z,973.1300
2022-10-05T08:00:29.557Z,973.0900
2022-10-05T08:01:31.778Z,973.0700
2022-10-05T08:02:34.049Z,973.1100
2022-10-05T08:03:36.097Z,973.1100
2022-10-05T08:04:41.775Z,973.1100
2022-10-05T08:05:40.456Z,973.1100
2022-10-05T08:06:42.644Z,973.0900
2022-10-05T08:07:42.693Z,973.1100
2022-10-05T08:08:44.905Z,973.1100
2022-10-05T08:09:47.232Z,973.0900
2022-10-05T08:10:49.270Z,973.1100
2022-10-05T08:11:51.457Z,973.1100
2022-10-05T08:12:53.690Z,973.0900
2022-10-05T08:13:55.968Z,973.0700
2022-10-05T08:14:58.146Z,973.0900
2022-10-05T08:16:00.411Z,973.0700
2022-10-05T08:17:02.600Z,973.0900
2022-10-05T08:18:04.834Z,973.0700
2022-10-05T08:19:07.127Z,973.0700
2022-10-05T08:20:09.334Z,973.0700
2022-10-05T08:21:11.599Z,973.0500
2022-10-05T08:22:11.692Z,973.0700
2022-10-05T08:23:13.890Z,973.0500
2022-10-05T08:24:16.154Z,973.0700
2022-10-05T08:25:18.431Z,973.0100
2022-10-05T08:26:20.643Z,973.0300
2022-10-05T08:27:22.830Z,973.0100
2022-10-05T08:28:25.146Z,973.0100
2022-10-05T08:29:27.366Z,973.0100
2022-10-05T08:30:29.602Z,973.0100
2022-10-05T08:31:29.799Z,972.9900
2022-10-05T08:32:32.042Z,973.0100
2022-10-05T08:33:34.315Z,972.9300
2022-10-05T08:34:36.704Z,972.9300
2022-10-05T08:35:39.041Z,972.9700
2022-10-05T08:36:41.348Z,972.9700
2022-10-05T08:37:41.470Z,972.9900
2022-10-05T08:38:43.754Z,972.9900
2022-10-05T08:39:46.112Z,972.9900
2022-10-05T08:40:48.416Z,972.9700
2022-10-05T08:41:50.671Z,973.0100
2022-10-05T08:42:52.997Z,973.0100
2022-10-05T08:43:53.193Z,972.9500
2022-10-05T08:44:55.581Z,972.9900
2022-10-05T08:45:57.958Z,973.0100
2022-10-05T08:47:00.282Z,973.0500
2022-10-05T08:48:01.521Z,973.0100
2022-10-05T08:49:01.696Z,972.9900
2022-10-05T08:50:04.050Z,973.0100
2022-10-05T08:51:06.332Z,973.0100
2022-10-05T08:52:08.680Z,973.0100
2022-10-05T08:53:11.008Z,973.0300
2022-10-05T08:54:13.316Z,973.0100
2022-10-05T08:55:15.682Z,973.0100
2022-10-05T08:56:20.891Z,973.0300
2022-10-05T08:57:20.276Z,973.0100
2022-10-05T08:58:22.604Z,972.9900
2022-10-05T08:59:24.934Z,973.0300
2022-10-05T09:00:27.347Z,973.0500
2022-10-05T09:01:29.694Z,973.0500
2022-10-05T09:02:32.059Z,973.0500
2022-10-05T09:03:34.679Z,973.0500
2022-10-05T09:04:36.591Z,973.1100
2022-10-05T09:05:38.947Z,973.1300
2022-10-05T09:06:41.272Z,973.1300
2022-10-05T09:07:43.591Z,973.1100
2022-10-05T09:08:45.936Z,973.1500
2022-10-05T09:09:48.171Z,973.1500
2022-10-05T09:10:50.482Z,973.1100
2022-10-05T09:11:52.773Z,973.1100
2022-10-05T09:12:55.069Z,973.1100
2022-10-05T09:13:57.322Z,973.1100
2022-10-05T09:15:23.829Z,973.0900
2022-10-05T09:15:59.811Z,973.1100
2022-10-05T09:17:02.051Z,973.1100
2022-10-05T09:18:04.361Z,973.1300
2022-10-05T09:19:06.694Z,973.1300
2022-10-05T09:20:09.009Z,973.1500
2022-10-05T09:21:11.353Z,973.1300
2022-10-05T09:22:13.635Z,973.1300
2022-10-05T09:23:15.936Z,973.1300
2022-10-05T09:24:18.237Z,973.0900
2022-10-05T09:25:18.360Z,973.1100
2022-10-05T09:26:20.676Z,973.1100
2022-10-05T09:27:22.937Z,973.0700
2022-10-05T09:28:25.306Z,973.1300
2022-10-05T09:29:27.444Z,973.0900
2022-10-05T09:30:29.689Z,973.0700
2022-10-05T09:31:32.051Z,973.1100
2022-10-05T09:32:34.161Z,973.1100
2022-10-05T09:33:36.345Z,973.1100
2022-10-05T09:34:38.536Z,973.1300
2022-10-05T09:35:40.736Z,973.1300
2022-10-05T09:36:42.912Z,973.1500
2022-10-05T09:37:45.108Z,973.1100
2022-10-05T09:38:47.338Z,973.1100
2022-10-05T09:39:49.611Z,973.1100
2022-10-05T09:40:51.770Z,973.0900
2022-10-05T09:41:53.973Z,973.1100
2022-10-05T09:42:54.069Z,973.1100
2022-10-05T09:43:56.244Z,973.1300
2022-10-05T09:44:58.461Z,973.1300
2022-10-05T09:46:00.721Z,973.1100
2022-10-05T09:47:02.903Z,973.0700
2022-10-05T09:48:05.074Z,973.0700
2022-10-05T09:49:07.273Z,973.0300
2022-10-05T09:50:09.591Z,973.0300
2022-10-05T09:51:11.679Z,972.9900
2022-10-05T09:52:18.612Z,973.0100
2022-10-05T09:53:13.878Z,972.9700
2022-10-05T09:54:16.089Z,973.0100
2022-10-05T09:55:18.274Z,973.0100
2022-10-05T09:56:20.545Z,972.9900
2022-10-05T09:57:22.694Z,972.9900
2022-10-05T09:58:25.025Z,972.9700
2022-10-05T09:59:27.151Z,972.9700
2022-10-05T10:00:29.388Z,972.9500
2022-10-05T10:01:34.357Z,972.9500
2022-10-05T10:02:34.076Z,972.9100
2022-10-05T10:03:36.121Z,972.9300
2022-10-05T10:04:38.276Z,972.9300
2022-10-05T10:05:40.436Z,972.9100
2022-10-05T10:06:42.633Z,972.8700
2022-10-05T10:07:42.718Z,972.8700
2022-10-05T10:08:44.902Z,972.8700
2022-10-05T10:09:47.117Z,972.8500
2022-10-05T10:10:49.293Z,972.8300
2022-10-05T10:11:51.467Z,972.8700
2022-10-05T10:12:53.703Z,972.8300
2022-10-05T10:13:55.900Z,972.8500
2022-10-05T10:15:02.488Z,972.8300
2022-10-05T10:16:00.370Z,972.8300
2022-10-05T10:17:02.496Z,972.8100
2022-10-05T10:18:02.597Z,972.7900
2022-10-05T10:19:04.732Z,972.7900
2022-10-05T10:20:06.894Z,972.7700
2022-10-05T10:21:09.118Z,972.7500
2022-10-05T10:22:11.332Z,972.7500
2022-10-05T10:23:13.506Z,972.7300
2022-10-05T10:24:13.506Z,972.7500
2022-10-05T10:25:15.652Z,972.7300
2022-10-05T10:26:17.839Z,972.7500
2022-10-05T10:27:19.990Z,972.7500
2022-10-05T10:28:22.247Z,972.7500
2022-10-05T10:30:26.298Z,972.7500
2022-10-05T10:31:23.452Z,972.7300
2022-10-05T10:32:25.619Z,972.7200
2022-10-05T10:33:27.842Z,972.7300
2022-10-05T10:34:30.007Z,972.7200
2022-10-05T10:35:32.177Z,972.7200
2022-10-05T10:36:34.283Z,972.7000
2022-10-05T10:37:36.422Z,972.6800
2022-10-05T10:38:38.673Z,972.7000
2022-10-05T10:39:40.905Z,972.6800
2022-10-05T10:40:43.178Z,972.6600
2022-10-05T10:41:45.405Z,972.6600
2022-10-05T10:42:47.641Z,972.6400
2022-10-05T10:43:49.898Z,972.6400
2022-10-05T10:44:52.055Z,972.6200
2022-10-05T10:45:54.274Z,972.6600
2022-10-05T10:46:56.469Z,972.6000
2022-10-05T10:47:58.572Z,972.6000
2022-10-05T10:49:00.815Z,972.5800
2022-10-05T10:50:02.968Z,972.5600
2022-10-05T10:51:05.183Z,972.5800
2022-10-05T10:52:07.397Z,972.5400
2022-10-05T10:53:09.604Z,972.5800
2022-10-05T10:54:11.796Z,972.5600
2022-10-05T10:55:13.986Z,972.5400
2022-10-05T10:56:16.207Z,972.5200
2022-10-05T10:57:18.440Z,972.5600
2022-10-05T10:58:20.717Z,972.5400
2022-10-05T10:59:25.487Z,972.5200
2022-10-05T11:00:25.076Z,972.5600
2022-10-05T11:01:27.396Z,972.5400
2022-10-05T11:02:29.507Z,972.5400
2022-10-05T11:03:31.660Z,972.5200
2022-10-05T11:04:33.895Z,972.5600
2022-10-05T11:05:36.053Z,972.5400
2022-10-05T11:06:38.218Z,972.5400
2022-10-05T11:07:40.381Z,972.5200
2022-10-05T11:08:42.547Z,972.4800
2022-10-05T11:09:44.760Z,972.4600
2022-10-05T11:10:46.862Z,972.4600
2022-10-05T11:11:47.256Z,972.4600
2022-10-05T11:12:49.134Z,972.4800
2022-10-05T11:13:51.365Z,972.4800
2022-10-05T11:14:53.559Z,972.4400
2022-10-05T11:15:55.835Z,972.4200
2022-10-05T11:16:57.970Z,972.4000
2022-10-05T11:18:00.152Z,972.4000
2022-10-05T11:19:02.443Z,972.3800
2022-10-05T11:20:05.400Z,972.3600
2022-10-05T11:21:06.848Z,972.3600
2022-10-05T11:22:09.092Z,972.3600
2022-10-05T11:23:11.313Z,972.3600
2022-10-05T11:24:13.501Z,972.3600
2022-10-05T11:25:15.761Z,972.3400
2022-10-05T11:26:15.768Z,972.3300
2022-10-05T11:27:17.964Z,972.3400
2022-10-05T11:28:20.172Z,972.2900
2022-10-05T11:29:22.346Z,972.3300
2022-10-05T11:30:24.600Z,972.2900
2022-10-05T11:31:26.905Z,972.2900
2022-10-05T11:32:29.038Z,972.2700
2022-10-05T11:33:31.212Z,972.2700
2022-10-05T11:34:33.432Z,972.3800
2022-10-05T11:35:35.687Z,972.2300
2022-10-05T11:36:37.862Z,972.2900
2022-10-05T11:37:40.079Z,972.1900
2022-10-05T11:38:42.288Z,972.2100
2022-10-05T11:39:44.487Z,972.2300
2022-10-05T11:40:46.710Z,972.2500
2022-10-05T11:41:49.287Z,972.2500
2022-10-05T11:42:51.051Z,972.1900
2022-10-05T11:43:53.274Z,972.2300
2022-10-05T11:44:55.469Z,972.1100
2022-10-05T11:45:55.530Z,972.2100
2022-10-05T11:46:57.714Z,972.1100
2022-10-05T11:47:59.890Z,972.1100
2022-10-05T11:49:02.073Z,972.0900
2022-10-05T11:50:04.321Z,972.0500
2022-10-05T11:51:06.527Z,972.0700
2022-10-05T11:52:08.726Z,972.0900
2022-10-05T11:53:10.940Z,972.0300
2022-10-05T11:54:13.150Z,972.0300
2022-10-05T11:55:15.394Z,972.0300
2022-10-05T11:56:15.445Z,972.0100
2022-10-05T11:57:17.642Z,972.0500
2022-10-05T11:58:19.853Z,971.9700
2022-10-05T11:59:22.064Z,971.9300
2022-10-05T12:00:24.251Z,971.9100
2022-10-05T12:01:26.465Z,971.9100
2022-10-05T12:02:28.696Z,971.8900
2022-10-05T12:03:31.151Z,971.8900
2022-10-05T12:04:33.060Z,971.8900
2022-10-05T12:05:35.274Z,971.8300
2022-10-05T12:06:37.513Z,971.8300
2022-10-05T12:07:39.710Z,971.8300
2022-10-05T12:08:41.915Z,971.8100
2022-10-05T12:09:44.138Z,971.7500
2022-10-05T12:10:44.207Z,971.7300
2022-10-05T12:11:46.444Z,971.7300